createdAt,value
2023-01-30T00:00:25.530Z,93.99
2023-01-30T00:03:31.959Z,91.95
2023-01-30T00:06:40.115Z,91.63
2023-01-30T00:09:47.810Z,90.95
2023-01-30T00:12:59.531Z,89.13
2023-01-30T00:16:06.065Z,89.22
2023-01-30T00:19:12.467Z,87.52
2023-01-30T00:22:18.661Z,87.38
2023-01-30T00:25:29.151Z,86.89
2023-01-30T00:28:39.708Z,85.54
2023-01-30T00:31:45.947Z,84.19
2023-01-30T00:34:52.130Z,85.74
2023-01-30T00:37:59.494Z,87.56
2023-01-30T00:41:06.180Z,89.41
2023-01-30T00:44:30.913Z,89.14
2023-01-30T00:47:37.119Z,89.08
2023-01-30T00:50:46.267Z,86.85
2023-01-30T00:53:52.277Z,85.50
2023-01-30T00:56:58.522Z,84.54
2023-01-30T01:00:09.128Z,85.98
2023-01-30T01:03:15.496Z,85.93
2023-01-30T01:06:21.836Z,85.09
2023-01-30T01:09:28.321Z,86.71
2023-01-30T01:12:34.645Z,87.07
2023-01-30T01:15:41.955Z,86.27
2023-01-30T01:18:48.754Z,86.99
2023-01-30T01:21:54.965Z,86.90
2023-01-30T01:25:00.978Z,85.07
2023-01-30T01:28:06.949Z,85.79
2023-01-30T01:31:16.739Z,86.70
2023-01-30T01:34:23.030Z,86.42
2023-01-30T01:37:32.028Z,87.09
2023-01-30T01:40:55.318Z,87.46
2023-01-30T01:44:08.560Z,87.48
2023-01-30T01:47:16.385Z,87.13
2023-01-30T01:50:28.265Z,87.31
2023-01-30T01:53:38.599Z,86.56
2023-01-30T01:56:48.564Z,89.02
2023-01-30T02:00:00.674Z,87.02
2023-01-30T02:03:11.808Z,88.03
2023-01-30T02:06:19.652Z,88.47
2023-01-30T02:09:26.016Z,86.60
2023-01-30T02:12:34.010Z,88.79
2023-01-30T02:15:40.908Z,88.58
2023-01-30T02:18:49.012Z,87.41
2023-01-30T02:22:30.635Z,91.27
2023-01-30T02:26:17.822Z,92.19
2023-01-30T02:30:11.577Z,90.54
2023-01-30T02:33:26.698Z,91.08
2023-01-30T02:36:47.587Z,90.47
2023-01-30T02:40:12.318Z,88.68
2023-01-30T02:43:29.423Z,89.40
2023-01-30T02:46:45.337Z,90.14
2023-01-30T02:50:00.770Z,90.25
2023-01-30T02:53:08.436Z,90.61
2023-01-30T02:56:14.538Z,89.91
2023-01-30T02:59:26.329Z,89.98
2023-01-30T03:03:07.436Z,90.57
2023-01-30T03:06:43.272Z,89.81
2023-01-30T03:09:59.428Z,90.79
2023-01-30T03:13:14.700Z,89.80
2023-01-30T03:16:26.855Z,89.61
2023-01-30T03:19:33.304Z,88.58
2023-01-30T03:22:39.502Z,90.48
2023-01-30T03:25:49.613Z,91.45
2023-01-30T03:28:56.122Z,91.61
2023-01-30T03:32:02.006Z,91.77
2023-01-30T03:35:08.448Z,92.09
2023-01-30T03:38:14.898Z,92.12
2023-01-30T03:41:22.334Z,92.26
2023-01-30T03:44:28.713Z,93.01
2023-01-30T03:47:34.731Z,94.11
2023-01-30T03:50:41.080Z,93.70
2023-01-30T03:53:47.037Z,94.23
2023-01-30T03:56:54.931Z,93.40
2023-01-30T04:00:01.242Z,93.11
2023-01-30T04:03:07.813Z,94.82
2023-01-30T04:06:13.800Z,95.09
2023-01-30T04:09:20.230Z,93.65
2023-01-30T04:12:27.829Z,93.68
2023-01-30T04:15:35.773Z,92.62
2023-01-30T04:18:42.133Z,92.79
2023-01-30T04:21:48.011Z,92.44
2023-01-30T04:24:53.871Z,91.93
2023-01-30T04:28:01.458Z,91.66
2023-01-30T04:31:09.444Z,91.83
2023-01-30T04:34:15.527Z,91.85
2023-01-30T04:37:21.780Z,90.90
2023-01-30T04:40:27.903Z,91.50
2023-01-30T04:43:35.502Z,90.81
2023-01-30T04:46:41.914Z,91.58
2023-01-30T04:49:48.275Z,91.41
2023-01-30T04:52:54.381Z,91.61
2023-01-30T04:56:00.821Z,92.75
2023-01-30T04:59:08.371Z,93.80
2023-01-30T05:02:14.827Z,93.25
2023-01-30T05:05:21.005Z,91.67
2023-01-30T05:08:26.871Z,91.09
2023-01-30T05:11:33.488Z,90.30
2023-01-30T05:14:41.459Z,90.51
2023-01-30T05:17:47.839Z,90.25
2023-01-30T05:20:53.821Z,88.19
2023-01-30T05:23:59.801Z,90.15
2023-01-30T05:27:05.849Z,91.32
2023-01-30T05:30:13.889Z,90.95
2023-01-30T05:33:19.956Z,92.01
2023-01-30T05:36:28.500Z,91.50
2023-01-30T05:39:34.747Z,92.55
2023-01-30T05:42:42.641Z,91.77
2023-01-30T05:45:55.672Z,93.32
2023-01-30T05:49:01.942Z,92.75
2023-01-30T05:52:07.866Z,94.12
2023-01-30T05:55:13.884Z,95.11
2023-01-30T05:58:19.815Z,94.46
2023-01-30T06:01:28.651Z,94.53
2023-01-30T06:04:35.597Z,95.29
2023-01-30T06:07:41.937Z,94.44
2023-01-30T06:10:48.179Z,93.52
2023-01-30T06:13:55.002Z,92.95
2023-01-30T06:17:02.940Z,93.12
2023-01-30T06:20:11.102Z,91.89
2023-01-30T06:23:17.774Z,89.73
2023-01-30T06:26:23.622Z,89.28
2023-01-30T06:29:29.352Z,89.64
2023-01-30T06:32:37.067Z,88.46
2023-01-30T06:35:44.725Z,88.43
2023-01-30T06:38:50.921Z,87.70
2023-01-30T06:41:56.860Z,86.81
2023-01-30T06:45:03.026Z,86.75
2023-01-30T06:48:10.865Z,86.42
2023-01-30T06:51:17.240Z,87.14
2023-01-30T06:54:23.634Z,87.00
2023-01-30T06:57:29.556Z,87.01
2023-01-30T07:00:35.858Z,89.24
2023-01-30T07:03:43.418Z,85.85
2023-01-30T07:06:50.192Z,85.40
2023-01-30T07:10:07.342Z,87.37
2023-01-30T07:13:15.094Z,85.53
2023-01-30T07:16:24.082Z,83.28
2023-01-30T07:19:32.027Z,83.67
2023-01-30T07:22:38.709Z,81.65
2023-01-30T07:25:45.109Z,80.15
2023-01-30T07:28:51.409Z,80.40
2023-01-30T07:31:58.069Z,79.24
2023-01-30T07:35:06.417Z,79.55
2023-01-30T07:38:12.961Z,77.36
2023-01-30T07:41:19.317Z,78.53
2023-01-30T07:44:25.691Z,77.19
2023-01-30T07:47:32.177Z,76.13
2023-01-30T07:50:40.141Z,78.40
2023-01-30T07:53:46.705Z,77.19
2023-01-30T07:56:53.384Z,76.94
2023-01-30T07:59:59.588Z,79.30
2023-01-30T08:03:05.665Z,77.45
2023-01-30T08:06:14.067Z,78.47
2023-01-30T08:09:20.315Z,75.22
2023-01-30T08:12:26.457Z,76.37
2023-01-30T08:15:33.643Z,74.92
2023-01-30T08:18:39.908Z,74.96
2023-01-30T08:21:47.754Z,75.77
2023-01-30T08:24:53.895Z,75.81
2023-01-30T08:28:00.779Z,73.85
2023-01-30T08:31:11.106Z,74.27
2023-01-30T08:34:17.416Z,73.75
2023-01-30T08:37:25.412Z,73.89
2023-01-30T08:40:31.487Z,72.81
2023-01-30T08:43:38.099Z,71.36
2023-01-30T08:46:44.501Z,71.47
2023-01-30T08:49:51.548Z,74.49
2023-01-30T08:52:59.359Z,72.72
2023-01-30T08:56:06.334Z,69.29
2023-01-30T08:59:12.715Z,72.71
2023-01-30T09:02:19.082Z,67.99
2023-01-30T09:05:25.953Z,70.80
2023-01-30T09:08:33.351Z,68.10
2023-01-30T09:11:39.649Z,67.10
2023-01-30T09:14:45.788Z,71.07
2023-01-30T09:17:53.364Z,71.97
2023-01-30T09:21:04.786Z,73.34
2023-01-30T09:24:12.163Z,74.69
2023-01-30T09:27:18.751Z,73.45
2023-01-30T09:30:24.998Z,76.12
2023-01-30T09:33:31.447Z,77.00
2023-01-30T09:36:37.625Z,77.61
2023-01-30T09:39:45.285Z,77.12
2023-01-30T09:43:16.241Z,76.73
2023-01-30T09:46:36.239Z,73.27
2023-01-30T09:49:54.499Z,70.45
2023-01-30T09:53:07.422Z,70.60
2023-01-30T09:56:15.323Z,70.41
2023-01-30T09:59:26.827Z,70.61
2023-01-30T10:02:42.648Z,70.32
2023-01-30T10:06:09.463Z,72.27
2023-01-30T10:09:22.624Z,71.03
2023-01-30T10:12:45.044Z,71.40
2023-01-30T10:15:58.015Z,73.05
2023-01-30T10:19:35.699Z,72.72
2023-01-30T10:22:56.647Z,74.91
2023-01-30T10:26:09.671Z,75.19
2023-01-30T10:29:22.899Z,78.35
2023-01-30T10:32:34.068Z,77.60
2023-01-30T10:35:44.184Z,76.09
2023-01-30T10:38:53.614Z,75.86
2023-01-30T10:42:10.892Z,75.65
2023-01-30T10:45:24.612Z,75.08
2023-01-30T10:48:52.895Z,75.96
2023-01-30T10:52:08.985Z,77.80
2023-01-30T10:55:35.318Z,75.11
2023-01-30T10:58:54.570Z,73.52
2023-01-30T11:02:13.431Z,71.81
2023-01-30T11:05:22.667Z,70.35
2023-01-30T11:08:30.438Z,67.81
2023-01-30T11:11:48.814Z,68.72
2023-01-30T11:14:58.710Z,70.99
2023-01-30T11:18:49.743Z,74.71
2023-01-30T11:21:43.991Z,76.16
2023-01-30T11:25:01.043Z,72.43
2023-01-30T11:28:07.647Z,70.55
2023-01-30T11:31:38.868Z,70.65
2023-01-30T11:35:04.403Z,69.53
2023-01-30T11:38:21.384Z,71.46
2023-01-30T11:41:28.123Z,71.68
2023-01-30T11:44:36.521Z,70.00
2023-01-30T11:47:57.280Z,69.80
2023-01-30T11:51:07.925Z,70.95
2023-01-30T11:54:17.522Z,71.05
2023-01-30T11:57:24.101Z,69.91
2023-01-30T12:00:39.632Z,69.50
2023-01-30T12:03:50.171Z,69.17
2023-01-30T12:07:10.039Z,71.83
2023-01-30T12:10:28.300Z,70.71
2023-01-30T12:13:39.595Z,71.86
2023-01-30T12:16:57.906Z,69.42
2023-01-30T12:20:14.276Z,72.27
2023-01-30T12:23:32.301Z,72.17
2023-01-30T12:26:45.527Z,74.61
2023-01-30T12:30:00.621Z,77.11
2023-01-30T12:33:12.212Z,76.47
2023-01-30T12:36:29.702Z,74.03
2023-01-30T12:39:49.877Z,71.73
2023-01-30T12:43:23.155Z,73.03
2023-01-30T12:46:45.489Z,70.49
2023-01-30T12:50:03.920Z,73.44
2023-01-30T12:53:32.892Z,72.61
2023-01-30T12:56:59.445Z,74.22
2023-01-30T13:00:27.905Z,72.43
2023-01-30T13:03:41.716Z,71.37
2023-01-30T13:06:59.401Z,74.01
2023-01-30T13:10:16.477Z,72.09
2023-01-30T13:13:31.359Z,73.05
2023-01-30T13:16:50.143Z,71.89
2023-01-30T13:20:05.369Z,70.73
2023-01-30T13:23:18.607Z,73.35
2023-01-30T13:26:31.456Z,70.27
2023-01-30T13:29:41.743Z,70.67
2023-01-30T13:32:51.026Z,72.07
2023-01-30T13:36:05.159Z,70.72
2023-01-30T13:42:34.386Z,71.60
2023-01-30T13:45:46.825Z,71.70
2023-01-30T13:49:07.838Z,68.96
2023-01-30T13:52:21.877Z,69.87
2023-01-30T13:55:34.039Z,72.33
2023-01-30T13:58:45.341Z,72.90
2023-01-30T14:02:22.081Z,70.48
2023-01-30T14:06:01.855Z,74.78
2023-01-30T14:09:22.350Z,75.99
2023-01-30T14:12:34.964Z,79.50
2023-01-30T14:15:43.849Z,80.49
2023-01-30T14:18:51.701Z,81.66
2023-01-30T14:21:59.865Z,82.19
2023-01-30T14:25:35.356Z,83.03
2023-01-30T14:28:48.387Z,81.90
2023-01-30T14:31:55.127Z,82.88
2023-01-30T14:35:23.714Z,83.96
2023-01-30T14:38:30.885Z,85.39
2023-01-30T14:41:37.600Z,85.00
2023-01-30T14:44:58.083Z,85.51
2023-01-30T14:48:29.430Z,85.01
2023-01-30T14:51:44.393Z,84.52
2023-01-30T14:54:51.955Z,83.67
2023-01-30T14:58:03.969Z,86.15
2023-01-30T15:01:10.459Z,85.56
2023-01-30T15:04:17.852Z,84.13
2023-01-30T15:07:29.884Z,84.98
2023-01-30T15:10:50.514Z,83.31
2023-01-30T15:14:07.673Z,84.24
2023-01-30T15:17:26.997Z,84.54
2023-01-30T15:20:45.060Z,84.79
2023-01-30T15:24:24.799Z,84.40
2023-01-30T15:27:36.152Z,83.93
2023-01-30T15:30:57.299Z,84.27
2023-01-30T15:34:03.419Z,85.19
2023-01-30T15:37:29.718Z,83.59
2023-01-30T15:40:38.003Z,83.49
2023-01-30T15:44:01.415Z,84.46
2023-01-30T15:47:44.039Z,84.25
2023-01-30T15:50:53.748Z,84.90
2023-01-30T15:54:01.396Z,85.52
2023-01-30T15:57:17.387Z,85.54
2023-01-30T16:00:28.699Z,85.47
2023-01-30T16:03:40.836Z,82.83
2023-01-30T16:06:46.842Z,83.29
2023-01-30T16:10:06.717Z,83.66
2023-01-30T16:13:14.579Z,83.27
2023-01-30T16:16:21.467Z,83.20
2023-01-30T16:19:30.061Z,83.95
2023-01-30T16:22:36.711Z,83.54
2023-01-30T16:25:48.758Z,84.48
2023-01-30T16:29:02.650Z,85.03
2023-01-30T16:32:14.414Z,85.21
2023-01-30T16:35:31.081Z,82.94
2023-01-30T16:38:40.639Z,82.11
2023-01-30T16:41:55.808Z,83.13
2023-01-30T16:45:30.527Z,83.34
2023-01-30T16:48:38.089Z,81.84
2023-01-30T16:51:44.668Z,83.39
2023-01-30T16:54:53.283Z,83.80
2023-01-30T16:58:02.751Z,82.23
2023-01-30T17:01:10.810Z,83.28
2023-01-30T17:04:23.415Z,82.80
2023-01-30T17:07:38.453Z,81.21
2023-01-30T17:10:56.539Z,81.00
2023-01-30T17:14:20.172Z,80.90
2023-01-30T17:17:27.820Z,79.90
2023-01-30T17:20:41.304Z,78.75
2023-01-30T17:23:51.791Z,79.88
2023-01-30T17:27:01.916Z,80.43
2023-01-30T17:30:15.254Z,78.29
2023-01-30T17:33:22.859Z,82.54
2023-01-30T17:36:30.757Z,86.78
2023-01-30T17:39:37.093Z,86.59
2023-01-30T17:42:43.199Z,88.00
2023-01-30T17:45:49.173Z,90.91
2023-01-30T17:48:56.665Z,90.39
2023-01-30T17:52:02.704Z,93.01
2023-01-30T17:55:11.137Z,92.68
2023-01-30T17:58:18.407Z,94.08
2023-01-30T18:01:24.658Z,91.15
2023-01-30T18:04:32.249Z,94.95
2023-01-30T18:07:38.562Z,92.47
2023-01-30T18:10:44.558Z,92.29
2023-01-30T18:13:51.055Z,92.51
2023-01-30T18:17:00.553Z,93.07
2023-01-30T18:20:09.588Z,92.89
2023-01-30T18:23:16.545Z,93.85
2023-01-30T18:26:23.364Z,94.58
2023-01-30T18:29:29.706Z,95.95
2023-01-30T18:32:40.675Z,94.13
2023-01-30T18:35:54.628Z,96.23
2023-01-30T18:39:00.876Z,93.27
2023-01-30T18:42:08.272Z,95.67
2023-01-30T18:45:14.253Z,95.40
2023-01-30T18:48:20.235Z,95.94
2023-01-30T18:51:29.692Z,97.18
2023-01-30T18:54:37.586Z,100.00
2023-01-30T18:57:43.831Z,99.49
2023-01-30T19:00:49.903Z,98.96
2023-01-30T19:03:56.907Z,100.00
2023-01-30T19:07:04.404Z,100.00
2023-01-30T19:10:12.180Z,99.34
2023-01-30T19:13:36.853Z,99.17
2023-01-30T19:16:43.010Z,100.00
2023-01-30T19:19:49.248Z,100.00
2023-01-30T19:22:56.665Z,98.23
2023-01-30T19:26:02.779Z,100.00
2023-01-30T19:29:08.928Z,100.00
2023-01-30T19:32:15.038Z,100.00
2023-01-30T19:35:21.957Z,99.42
2023-01-30T19:38:29.906Z,100.00
2023-01-30T19:41:37.911Z,99.63
2023-01-30T19:44:43.997Z,99.55
2023-01-30T19:47:50.040Z,100.00
2023-01-30T19:50:56.123Z,96.90
2023-01-30T19:54:06.423Z,100.00
2023-01-30T19:57:12.511Z,100.00
2023-01-30T20:00:19.740Z,98.98
2023-01-30T20:03:26.200Z,100.00
2023-01-30T20:06:34.917Z,99.35
2023-01-30T20:09:42.539Z,100.00
2023-01-30T20:12:48.991Z,100.00
2023-01-30T20:15:56.732Z,99.16
2023-01-30T20:19:05.676Z,100.00
2023-01-30T20:22:11.991Z,100.00
2023-01-30T20:25:19.632Z,99.21
2023-01-30T20:28:26.137Z,100.00
2023-01-30T20:31:34.777Z,100.00
2023-01-30T20:34:41.086Z,100.00
2023-01-30T20:37:47.087Z,99.72
2023-01-30T20:41:02.341Z,100.00
2023-01-30T20:44:10.073Z,100.00
2023-01-30T20:47:16.769Z,100.00
2023-01-30T20:50:23.055Z,100.00
2023-01-30T20:53:29.265Z,100.00
2023-01-30T20:56:39.865Z,100.00
2023-01-30T20:59:46.861Z,99.39
2023-01-30T21:02:53.501Z,100.00
2023-01-30T21:06:00.267Z,100.00
2023-01-30T21:09:08.331Z,100.00
2023-01-30T21:12:16.252Z,100.00
2023-01-30T21:15:22.743Z,100.00
2023-01-30T21:18:31.569Z,100.00
2023-01-30T21:21:40.273Z,100.00
2023-01-30T21:24:46.714Z,100.00
2023-01-30T21:27:54.626Z,100.00
2023-01-30T21:31:06.092Z,100.00
2023-01-30T21:34:13.307Z,100.00
2023-01-30T21:37:37.096Z,100.00
2023-01-30T21:41:08.032Z,100.00
2023-01-30T21:44:16.301Z,100.00
2023-01-30T21:47:22.826Z,100.00
2023-01-30T21:50:28.929Z,100.00
2023-01-30T21:53:35.061Z,100.00
2023-01-30T21:56:41.459Z,100.00
2023-01-30T21:59:49.191Z,100.00
2023-01-30T22:02:55.180Z,100.00
2023-01-30T22:06:01.195Z,100.00
2023-01-30T22:09:08.052Z,100.00
2023-01-30T22:12:14.281Z,100.00
2023-01-30T22:15:22.762Z,100.00
2023-01-30T22:18:28.995Z,100.00
2023-01-30T22:21:36.718Z,100.00
2023-01-30T22:24:42.737Z,100.00
2023-01-30T22:27:48.847Z,100.00
2023-01-30T22:31:01.815Z,100.00
2023-01-30T22:34:08.969Z,100.00
2023-01-30T22:37:16.451Z,100.00
2023-01-30T22:40:22.266Z,100.00
2023-01-30T22:43:28.615Z,100.00
2023-01-30T22:46:38.628Z,100.00
2023-01-30T22:49:44.966Z,100.00
2023-01-30T22:52:50.960Z,100.00
2023-01-30T22:55:57.264Z,100.00
2023-01-30T22:59:04.617Z,100.00
2023-01-30T23:02:12.384Z,100.00
2023-01-30T23:05:18.905Z,100.00
2023-01-30T23:08:25.783Z,100.00
2023-01-30T23:11:35.812Z,100.00
2023-01-30T23:14:43.093Z,100.00
2023-01-30T23:18:07.935Z,100.00
2023-01-30T23:21:16.166Z,100.00
2023-01-30T23:24:22.789Z,100.00
2023-01-30T23:27:32.125Z,98.75
2023-01-30T23:30:40.230Z,100.00
2023-01-30T23:33:47.849Z,100.00
2023-01-30T23:36:55.063Z,100.00
2023-01-30T23:40:03.332Z,100.00
2023-01-30T23:43:09.564Z,100.00
2023-01-30T23:46:19.754Z,100.00
2023-01-30T23:49:27.563Z,100.00
2023-01-30T23:52:33.815Z,100.00
2023-01-30T23:55:39.931Z,100.00
2023-01-30T23:58:47.115Z,100.00
